createdAt,value
2018-07-11T00:00:49.178Z,6.53
2018-07-11T00:03:21.157Z,6.47
2018-07-11T00:05:50.080Z,6.28
2018-07-11T00:08:19.004Z,6.03
2018-07-11T00:10:48.026Z,6.75
2018-07-11T00:13:16.934Z,6.10
2018-07-11T00:15:45.992Z,7.30
2018-07-11T00:18:14.891Z,6.37
2018-07-11T00:20:43.946Z,6.10
2018-07-11T00:23:13.269Z,6.05
2018-07-11T00:25:42.254Z,5.92
2018-07-11T00:28:11.251Z,5.22
2018-07-11T00:30:40.324Z,6.25
2018-07-11T00:33:09.392Z,5.67
2018-07-11T00:35:38.363Z,6.05
2018-07-11T00:38:07.372Z,6.30
2018-07-11T00:40:36.378Z,5.92
2018-07-11T00:43:05.672Z,5.92
2018-07-11T00:45:34.652Z,5.65
2018-07-11T00:48:03.711Z,6.20
2018-07-11T00:50:32.713Z,6.37
2018-07-11T00:53:01.834Z,5.97
2018-07-11T00:55:30.797Z,6.25
2018-07-11T00:58:06.494Z,5.75
2018-07-11T01:00:35.531Z,5.95
2018-07-11T01:03:04.679Z,5.10
2018-07-11T01:05:33.675Z,5.62
2018-07-11T01:08:02.553Z,5.67
2018-07-11T01:10:31.477Z,5.95
2018-07-11T01:13:00.419Z,6.75
2018-07-11T01:15:29.344Z,6.30
2018-07-11T01:18:04.691Z,5.28
2018-07-11T01:20:33.783Z,5.37
2018-07-11T01:23:02.721Z,6.42
2018-07-11T01:25:32.079Z,5.50
2018-07-11T01:28:01.021Z,6.05
2018-07-11T01:30:30.305Z,6.37
2018-07-11T01:32:58.679Z,6.25
2018-07-11T01:35:28.101Z,5.75
2018-07-11T01:37:57.428Z,6.70
2018-07-11T01:40:26.197Z,6.17
2018-07-11T01:42:55.523Z,6.55
2018-07-11T01:45:25.028Z,6.17
2018-07-11T01:47:53.466Z,6.05
2018-07-11T01:50:22.553Z,6.05
2018-07-11T01:52:59.505Z,5.78
2018-07-11T01:55:29.101Z,6.20
2018-07-11T01:57:59.604Z,6.10
2018-07-11T02:00:29.325Z,5.58
2018-07-11T02:02:58.331Z,6.12
2018-07-11T02:05:27.901Z,6.42
2018-07-11T02:07:57.015Z,6.42
2018-07-11T02:10:26.289Z,6.72
2018-07-11T02:12:55.286Z,6.65
2018-07-11T02:15:23.694Z,6.10
2018-07-11T02:17:52.674Z,5.75
2018-07-11T02:20:21.089Z,6.47
2018-07-11T02:22:53.140Z,6.53
2018-07-11T02:25:22.016Z,5.90
2018-07-11T02:27:50.786Z,5.65
2018-07-11T02:30:19.299Z,6.37
2018-07-11T02:32:47.697Z,5.90
2018-07-11T02:35:16.647Z,6.35
2018-07-11T02:37:45.556Z,6.00
2018-07-11T02:40:13.960Z,6.35
2018-07-11T02:42:43.097Z,5.67
2018-07-11T02:45:11.433Z,6.30
2018-07-11T02:47:44.502Z,6.33
2018-07-11T02:50:14.204Z,6.08
2018-07-11T02:52:42.882Z,6.73
2018-07-11T02:55:11.875Z,6.67
2018-07-11T02:57:40.920Z,6.87
2018-07-11T03:00:09.822Z,7.25
2018-07-11T03:02:39.733Z,7.28
2018-07-11T03:05:09.413Z,8.05
2018-07-11T03:07:38.453Z,8.43
2018-07-11T03:10:07.470Z,7.45
2018-07-11T03:12:36.585Z,7.20
2018-07-11T03:15:05.943Z,7.80
2018-07-11T03:17:34.909Z,7.70
2018-07-11T03:20:03.446Z,7.87
2018-07-11T03:22:31.925Z,8.63
2018-07-11T03:25:01.030Z,14.00
2018-07-11T03:27:29.387Z,11.40
2018-07-11T03:29:58.709Z,10.55
2018-07-11T03:32:27.111Z,10.13
2018-07-11T03:34:55.695Z,9.93
2018-07-11T03:37:24.749Z,10.72
2018-07-11T03:39:53.211Z,10.33
2018-07-11T03:42:22.123Z,9.85
2018-07-11T03:44:51.093Z,10.23
2018-07-11T03:47:19.604Z,9.63
2018-07-11T03:49:48.057Z,10.70
2018-07-11T03:52:16.975Z,9.88
2018-07-11T03:54:45.325Z,9.60
2018-07-11T03:57:13.720Z,8.87
2018-07-11T03:59:42.634Z,9.88
2018-07-11T04:02:11.641Z,9.63
2018-07-11T04:04:40.596Z,9.03
2018-07-11T04:07:08.948Z,8.30
2018-07-11T04:09:38.305Z,9.58
2018-07-11T04:12:07.280Z,10.30
2018-07-11T04:14:36.214Z,8.85
2018-07-11T04:17:05.661Z,8.80
2018-07-11T04:19:34.564Z,8.00
2018-07-11T04:22:03.508Z,8.88
2018-07-11T04:24:32.446Z,10.30
2018-07-11T04:27:01.509Z,10.32
2018-07-11T04:29:30.532Z,10.28
2018-07-11T04:31:59.802Z,12.25
2018-07-11T04:34:28.845Z,12.03
2018-07-11T04:36:58.168Z,11.43
2018-07-11T04:39:27.481Z,11.57
2018-07-11T04:41:56.408Z,12.73
2018-07-11T04:44:25.529Z,10.75
2018-07-11T04:46:54.525Z,11.22
2018-07-11T04:49:23.920Z,11.28
2018-07-11T04:51:53.174Z,11.03
2018-07-11T04:54:22.313Z,12.20
2018-07-11T04:56:51.326Z,11.45
2018-07-11T04:59:20.586Z,11.95
2018-07-11T05:01:49.891Z,11.80
2018-07-11T05:04:18.857Z,11.83
2018-07-11T05:06:47.802Z,11.08
2018-07-11T05:09:16.736Z,20.92
2018-07-11T05:11:45.371Z,15.27
2018-07-11T05:14:14.268Z,11.25
2018-07-11T05:16:43.267Z,10.63
2018-07-11T05:19:12.546Z,10.63
2018-07-11T05:21:41.498Z,10.35
2018-07-11T05:24:11.457Z,10.03
2018-07-11T05:26:40.403Z,12.88
2018-07-11T05:29:09.343Z,11.35
2018-07-11T05:31:38.313Z,10.35
2018-07-11T05:34:07.868Z,12.05
2018-07-11T05:36:36.824Z,10.23
2018-07-11T05:39:06.212Z,9.88
2018-07-11T05:41:35.125Z,10.38
2018-07-11T05:44:04.048Z,11.80
2018-07-11T05:46:33.180Z,11.97
2018-07-11T05:49:02.110Z,11.15
2018-07-11T05:51:31.052Z,12.50
2018-07-11T05:53:59.975Z,12.07
2018-07-11T05:56:28.895Z,11.25
2018-07-11T05:58:58.280Z,11.40
2018-07-11T06:01:27.243Z,11.33
2018-07-11T06:03:56.167Z,10.35
2018-07-11T06:06:25.774Z,10.65
2018-07-11T06:08:55.410Z,11.33
2018-07-11T06:11:25.205Z,10.68
2018-07-11T06:13:54.568Z,11.00
2018-07-11T06:16:23.858Z,11.30
2018-07-11T06:18:53.348Z,10.40
2018-07-11T06:21:26.179Z,10.88
2018-07-11T06:23:55.890Z,10.15
2018-07-11T06:26:25.057Z,10.25
2018-07-11T06:28:53.984Z,10.00
2018-07-11T06:31:23.163Z,9.80
2018-07-11T06:33:52.118Z,10.20
2018-07-11T06:36:21.035Z,9.83
2018-07-11T06:38:49.951Z,9.70
2018-07-11T06:41:18.927Z,9.28
2018-07-11T06:43:47.885Z,9.15
2018-07-11T06:46:17.131Z,10.15
2018-07-11T06:48:46.066Z,8.13
2018-07-11T06:51:15.197Z,8.80
2018-07-11T06:53:44.460Z,8.85
2018-07-11T06:56:13.486Z,8.68
2018-07-11T06:58:42.408Z,8.43
2018-07-11T07:01:11.411Z,7.50
2018-07-11T07:03:40.743Z,7.42
2018-07-11T07:06:09.769Z,7.50
2018-07-11T07:08:38.685Z,7.55
2018-07-11T07:11:07.613Z,7.75
2018-07-11T07:13:36.537Z,7.85
2018-07-11T07:16:05.958Z,7.78
2018-07-11T07:18:34.867Z,7.17
2018-07-11T07:21:04.126Z,6.97
2018-07-11T07:23:33.075Z,6.33
2018-07-11T07:26:02.326Z,6.55
2018-07-11T07:28:31.324Z,6.45
2018-07-11T07:31:00.569Z,6.15
2018-07-11T07:33:29.940Z,8.00
2018-07-11T07:35:58.946Z,8.60
2018-07-11T07:38:27.920Z,8.55
2018-07-11T07:40:57.240Z,7.35
2018-07-11T07:43:26.930Z,6.35
2018-07-11T07:45:56.650Z,5.90
2018-07-11T07:48:25.613Z,5.62
2018-07-11T07:50:54.605Z,5.12
2018-07-11T07:53:23.557Z,5.58
2018-07-11T07:55:52.615Z,5.45
2018-07-11T07:58:21.615Z,5.47
2018-07-11T08:00:51.036Z,5.75
2018-07-11T08:03:20.011Z,5.90
2018-07-11T08:05:49.366Z,6.40
2018-07-11T08:08:18.522Z,6.60
2018-07-11T08:10:47.796Z,6.78
2018-07-11T08:13:17.059Z,6.58
2018-07-11T08:15:46.095Z,7.20
2018-07-11T08:18:15.005Z,7.25
2018-07-11T08:20:44.112Z,7.03
2018-07-11T08:23:25.344Z,6.60
2018-07-11T08:26:06.761Z,6.60
2018-07-11T08:29:55.435Z,7.25
2018-07-11T08:32:38.460Z,7.85
2018-07-11T08:37:22.261Z,7.40
2018-07-11T08:42:08.380Z,6.62
2018-07-11T08:45:48.731Z,6.70
2018-07-11T08:48:31.673Z,7.17
2018-07-11T08:53:14.624Z,7.50
2018-07-11T08:56:58.577Z,6.03
2018-07-11T08:59:38.542Z,5.95
2018-07-11T09:04:25.628Z,5.40
2018-07-11T09:09:12.613Z,5.53
2018-07-11T09:13:55.576Z,6.20
2018-07-11T09:16:41.361Z,4.63
2018-07-11T09:19:22.695Z,4.60
2018-07-11T09:22:04.791Z,5.20
2018-07-11T09:24:39.188Z,5.40
2018-07-11T09:27:08.811Z,5.15
2018-07-11T09:29:38.479Z,4.90
2018-07-11T09:32:08.012Z,4.90
2018-07-11T09:34:37.010Z,5.00
2018-07-11T09:37:06.281Z,5.28
2018-07-11T09:39:35.317Z,5.22
2018-07-11T09:42:04.393Z,5.78
2018-07-11T09:44:33.899Z,4.78
2018-07-11T09:47:08.484Z,4.87
2018-07-11T09:49:37.458Z,4.47
2018-07-11T09:52:06.917Z,3.98
2018-07-11T09:54:38.955Z,3.77
2018-07-11T09:57:07.905Z,3.83
2018-07-11T09:59:36.890Z,3.92
2018-07-11T10:02:05.870Z,3.98
2018-07-11T10:04:35.229Z,3.42
2018-07-11T10:07:05.105Z,3.30
2018-07-11T10:09:34.190Z,3.77
2018-07-11T10:12:03.609Z,3.95
2018-07-11T10:14:32.724Z,3.77
2018-07-11T10:17:01.664Z,4.22
2018-07-11T10:19:31.072Z,4.22
2018-07-11T10:22:00.055Z,4.85
2018-07-11T10:24:29.030Z,4.70
2018-07-11T10:26:58.666Z,4.40
2018-07-11T10:29:28.341Z,4.78
2018-07-11T10:31:57.285Z,4.55
2018-07-11T10:34:26.340Z,4.40
2018-07-11T10:36:55.311Z,5.22
2018-07-11T10:39:24.664Z,4.65
2018-07-11T10:41:54.122Z,4.80
2018-07-11T10:44:23.031Z,4.53
2018-07-11T10:46:56.620Z,4.58
2018-07-11T10:49:25.525Z,4.70
2018-07-11T10:51:54.435Z,4.80
2018-07-11T10:54:23.828Z,5.10
2018-07-11T10:56:52.915Z,5.12
2018-07-11T10:59:22.151Z,5.37
2018-07-11T11:01:51.119Z,5.05
2018-07-11T11:04:20.605Z,4.85
2018-07-11T11:06:49.631Z,5.62
2018-07-11T11:09:18.711Z,5.47
2018-07-11T11:11:48.008Z,6.10
2018-07-11T11:14:17.145Z,6.25
2018-07-11T11:16:46.273Z,5.35
2018-07-11T11:19:15.381Z,5.42
2018-07-11T11:21:44.554Z,5.78
2018-07-11T11:24:13.880Z,5.30
2018-07-11T11:26:43.192Z,4.80
2018-07-11T11:29:12.181Z,5.10
2018-07-11T11:31:41.145Z,4.90
2018-07-11T11:34:10.209Z,5.37
2018-07-11T11:36:39.343Z,5.33
2018-07-11T11:39:08.601Z,4.70
2018-07-11T11:41:37.811Z,4.10
2018-07-11T11:44:07.332Z,2.77
2018-07-11T11:46:36.994Z,2.35
2018-07-11T11:49:06.796Z,2.20
2018-07-11T11:51:35.964Z,1.93
2018-07-11T11:54:04.886Z,2.65
2018-07-11T11:56:33.792Z,2.80
2018-07-11T11:59:03.284Z,3.58
2018-07-11T12:01:32.281Z,2.67
2018-07-11T12:04:01.540Z,2.50
2018-07-11T12:06:30.526Z,2.47
2018-07-11T12:08:59.453Z,2.05
2018-07-11T12:11:28.455Z,1.87
2018-07-11T12:13:57.427Z,1.80
2018-07-11T12:16:25.835Z,2.07
2018-07-11T12:18:54.880Z,1.80
2018-07-11T12:21:24.225Z,1.70
2018-07-11T12:23:53.064Z,2.10
2018-07-11T12:26:21.794Z,2.00
2018-07-11T12:28:50.758Z,1.80
2018-07-11T12:31:19.442Z,2.00
2018-07-11T12:33:48.367Z,1.80
2018-07-11T12:36:17.166Z,2.40
2018-07-11T12:38:46.478Z,2.22
2018-07-11T12:41:15.542Z,2.30
2018-07-11T12:43:44.596Z,2.22
2018-07-11T12:46:13.440Z,2.47
2018-07-11T12:48:47.490Z,2.47
2018-07-11T12:51:16.440Z,2.27
2018-07-11T12:53:45.422Z,2.12
2018-07-11T12:56:14.093Z,2.00
2018-07-11T12:58:42.760Z,2.10
2018-07-11T13:01:11.413Z,2.20
2018-07-11T13:03:40.550Z,2.13
2018-07-11T13:06:08.926Z,2.13
2018-07-11T13:08:37.647Z,2.10
2018-07-11T13:11:06.626Z,1.50
2018-07-11T13:13:35.712Z,1.40
2018-07-11T13:16:04.536Z,1.27
2018-07-11T13:18:33.350Z,1.20
2018-07-11T13:21:02.281Z,1.72
2018-07-11T13:23:31.259Z,1.80
2018-07-11T13:25:59.905Z,2.00
2018-07-11T13:28:28.702Z,2.00
2018-07-11T13:30:57.360Z,2.13
2018-07-11T13:33:26.362Z,2.17
2018-07-11T13:35:55.018Z,2.10
2018-07-11T13:38:23.739Z,2.00
2018-07-11T13:40:52.391Z,2.47
2018-07-11T13:43:21.040Z,2.77
2018-07-11T13:45:49.965Z,2.08
2018-07-11T13:48:18.985Z,1.90
2018-07-11T13:50:48.227Z,1.70
2018-07-11T13:53:17.337Z,2.10
2018-07-11T13:55:46.158Z,1.50
2018-07-11T13:58:14.925Z,1.47
2018-07-11T14:00:43.642Z,2.00
2018-07-11T14:03:12.241Z,1.80
2018-07-11T14:05:40.932Z,1.70
2018-07-11T14:08:09.722Z,2.00
2018-07-11T14:10:38.440Z,1.67
2018-07-11T14:13:07.148Z,1.97
2018-07-11T14:15:36.157Z,1.90
2018-07-11T14:18:05.461Z,1.90
2018-07-11T14:20:34.160Z,1.90
2018-07-11T14:23:06.720Z,1.77
2018-07-11T14:25:38.286Z,2.00
2018-07-11T14:28:06.992Z,2.00
2018-07-11T14:30:37.060Z,1.60
2018-07-11T14:33:08.858Z,1.87
2018-07-11T14:35:38.297Z,1.95
2018-07-11T14:38:06.942Z,2.10
2018-07-11T14:40:35.911Z,1.72
2018-07-11T14:43:05.079Z,1.95
2018-07-11T14:45:34.529Z,2.08
2018-07-11T14:48:09.561Z,2.57
2018-07-11T14:50:38.276Z,2.93
2018-07-11T14:53:07.238Z,3.02
2018-07-11T14:55:36.399Z,3.10
2018-07-11T14:58:05.476Z,3.13
2018-07-11T15:00:34.273Z,2.73
2018-07-11T15:03:03.283Z,2.90
2018-07-11T15:05:32.055Z,2.77
2018-07-11T15:08:00.896Z,2.90
2018-07-11T15:10:29.783Z,2.80
2018-07-11T15:12:58.956Z,2.77
2018-07-11T15:15:28.803Z,2.80
2018-07-11T15:17:58.041Z,2.80
2018-07-11T15:20:27.227Z,3.10
2018-07-11T15:22:56.120Z,3.10
2018-07-11T15:25:25.438Z,3.07
2018-07-11T15:27:54.360Z,3.00
2018-07-11T15:30:23.211Z,2.80
2018-07-11T15:32:51.933Z,2.53
2018-07-11T15:35:20.659Z,2.30
2018-07-11T15:37:49.299Z,2.23
2018-07-11T15:40:17.999Z,2.00
2018-07-11T15:42:47.878Z,1.90
2018-07-11T15:45:16.666Z,2.20
2018-07-11T15:47:45.682Z,2.20
2018-07-11T15:50:14.883Z,1.80
2018-07-11T15:52:43.699Z,2.20
2018-07-11T15:55:12.428Z,1.90
2018-07-11T15:57:50.909Z,2.20
2018-07-11T16:00:22.707Z,2.10
2018-07-11T16:02:51.905Z,2.00
2018-07-11T16:05:22.935Z,2.33
2018-07-11T16:07:54.265Z,2.30
2018-07-11T16:10:39.664Z,2.47
2018-07-11T16:13:08.877Z,2.60
2018-07-11T16:15:37.966Z,2.50
2018-07-11T16:18:08.708Z,2.50
2018-07-11T16:20:38.239Z,2.80
2018-07-11T16:23:07.810Z,2.60
2018-07-11T16:25:37.166Z,2.87
2018-07-11T16:28:06.503Z,2.47
2018-07-11T16:30:36.594Z,2.30
2018-07-11T16:33:06.104Z,2.25
2018-07-11T16:35:35.450Z,2.50
2018-07-11T16:38:04.896Z,2.15
2018-07-11T16:40:34.390Z,2.02
2018-07-11T16:43:06.062Z,2.80
2018-07-11T16:45:35.479Z,2.50
2018-07-11T16:48:05.136Z,2.35
2018-07-11T16:50:35.370Z,2.40
2018-07-11T16:53:05.250Z,2.10
2018-07-11T16:55:35.574Z,2.40
2018-07-11T16:58:04.935Z,2.65
2018-07-11T17:00:35.235Z,2.62
2018-07-11T17:03:11.729Z,3.00
2018-07-11T17:05:53.528Z,2.20
2018-07-11T17:08:30.206Z,2.50
2018-07-11T17:11:26.117Z,2.35
2018-07-11T17:13:58.290Z,2.35
2018-07-11T17:17:05.730Z,2.15
2018-07-11T17:19:54.238Z,2.62
2018-07-11T17:22:27.198Z,2.50
2018-07-11T17:24:58.377Z,2.83
2018-07-11T17:27:27.353Z,2.50
2018-07-11T17:30:00.623Z,2.60
2018-07-11T17:32:30.839Z,2.90
2018-07-11T17:35:00.133Z,2.75
2018-07-11T17:37:32.611Z,3.30
2018-07-11T17:40:08.961Z,3.58
2018-07-11T17:42:37.970Z,2.72
2018-07-11T17:45:09.319Z,2.95
2018-07-11T17:49:49.757Z,3.00
2018-07-11T17:52:18.800Z,3.25
2018-07-11T17:55:08.057Z,2.70
2018-07-11T17:57:43.830Z,3.40
2018-07-11T18:00:15.831Z,3.20
2018-07-11T18:02:53.857Z,3.40
2018-07-11T18:05:32.163Z,3.50
2018-07-11T18:08:08.113Z,3.00
2018-07-11T18:10:47.587Z,3.50
2018-07-11T18:13:26.269Z,3.35
2018-07-11T18:16:11.364Z,3.83
2018-07-11T18:19:04.488Z,3.42
2018-07-11T18:22:48.962Z,3.85
2018-07-11T18:27:35.354Z,3.77
2018-07-11T18:30:18.296Z,3.55
2018-07-11T18:33:00.565Z,3.67
2018-07-11T18:36:44.476Z,3.60
2018-07-11T18:39:21.170Z,3.20
2018-07-11T18:42:01.611Z,3.92
2018-07-11T18:45:43.276Z,3.58
2018-07-11T18:48:24.804Z,3.47
2018-07-11T18:51:05.103Z,3.12
2018-07-11T18:54:48.274Z,3.60
2018-07-11T18:58:26.003Z,3.30
2018-07-11T19:01:04.983Z,3.30
2018-07-11T19:03:43.626Z,3.40
2018-07-11T19:06:37.627Z,3.30
2018-07-11T19:09:08.542Z,3.37
2018-07-11T19:12:47.416Z,3.58
2018-07-11T19:15:23.101Z,3.15
2018-07-11T19:17:56.863Z,3.10
2018-07-11T19:21:36.449Z,2.83
2018-07-11T19:24:10.971Z,2.95
2018-07-11T19:26:54.342Z,3.20
2018-07-11T19:30:07.459Z,3.10
2018-07-11T19:34:48.177Z,3.20
2018-07-11T19:37:34.761Z,3.00
2018-07-11T19:40:14.907Z,2.85
2018-07-11T19:42:51.883Z,3.08
2018-07-11T19:45:34.307Z,3.22
2018-07-11T19:48:28.541Z,3.42
2018-07-11T19:51:14.891Z,3.25
2018-07-11T19:53:56.187Z,3.58
2018-07-11T19:56:31.363Z,3.67
2018-07-11T19:59:00.560Z,3.55
2018-07-11T20:01:29.489Z,3.60
2018-07-11T20:03:58.797Z,3.30
2018-07-11T20:06:28.268Z,3.83
2018-07-11T20:08:57.246Z,3.67
2018-07-11T20:11:26.177Z,4.83
2018-07-11T20:13:55.272Z,4.15
2018-07-11T20:16:24.878Z,3.85
2018-07-11T20:18:53.979Z,4.03
2018-07-11T20:21:23.666Z,3.72
2018-07-11T20:23:52.925Z,3.65
2018-07-11T20:26:22.204Z,4.45
2018-07-11T20:28:51.468Z,3.77
2018-07-11T20:31:21.090Z,4.10
2018-07-11T20:33:50.472Z,4.10
2018-07-11T20:36:19.736Z,4.00
2018-07-11T20:38:48.666Z,4.08
2018-07-11T20:41:17.587Z,4.53
2018-07-11T20:43:46.760Z,4.40
2018-07-11T20:46:15.446Z,4.00
2018-07-11T20:48:44.514Z,4.25
2018-07-11T20:51:13.588Z,4.47
2018-07-11T20:53:42.556Z,4.30
2018-07-11T20:56:11.458Z,4.92
2018-07-11T20:58:51.705Z,4.30
2018-07-11T21:01:31.985Z,4.55
2018-07-11T21:06:16.113Z,4.85
2018-07-11T21:08:59.799Z,4.42
2018-07-11T21:12:11.926Z,5.22
2018-07-11T21:14:50.938Z,5.22
2018-07-11T21:17:29.841Z,5.22
2018-07-11T21:19:58.856Z,5.55
2018-07-11T21:22:28.159Z,5.50
2018-07-11T21:24:57.064Z,5.95
2018-07-11T21:27:25.984Z,5.30
2018-07-11T21:29:54.866Z,5.50
2018-07-11T21:32:24.106Z,5.70
2018-07-11T21:34:53.016Z,5.97
2018-07-11T21:37:21.991Z,6.47
2018-07-11T21:39:51.107Z,6.37
2018-07-11T21:42:20.136Z,6.55
2018-07-11T21:44:48.877Z,6.30
2018-07-11T21:47:17.782Z,6.53
2018-07-11T21:49:46.671Z,7.60
2018-07-11T21:52:15.599Z,7.03
2018-07-11T21:54:44.518Z,6.12
2018-07-11T21:57:13.415Z,7.58
2018-07-11T21:59:42.327Z,7.15
2018-07-11T22:02:11.583Z,6.42
2018-07-11T22:04:40.541Z,6.60
2018-07-11T22:07:09.467Z,7.62
2018-07-11T22:09:38.781Z,6.87
2018-07-11T22:12:07.743Z,6.87
2018-07-11T22:14:37.106Z,6.60
2018-07-11T22:17:17.227Z,7.03
2018-07-11T22:19:45.075Z,7.58
2018-07-11T22:22:13.206Z,7.67
2018-07-11T22:24:41.048Z,6.75
2018-07-11T22:27:08.877Z,7.75
2018-07-11T22:29:36.755Z,7.10
2018-07-11T22:32:04.579Z,6.85
2018-07-11T22:34:32.405Z,6.75
2018-07-11T22:37:00.259Z,6.75
2018-07-11T22:39:28.180Z,7.08
2018-07-11T22:41:56.030Z,6.58
2018-07-11T22:44:23.877Z,6.95
2018-07-11T22:46:51.710Z,7.40
2018-07-11T22:49:19.594Z,7.60
2018-07-11T22:51:47.825Z,8.75
2018-07-11T22:54:15.698Z,8.03
2018-07-11T22:56:43.558Z,7.67
2018-07-11T22:59:11.764Z,8.15
2018-07-11T23:01:39.614Z,7.60
2018-07-11T23:04:07.447Z,7.40
2018-07-11T23:06:35.306Z,7.10
2018-07-11T23:09:03.456Z,8.70
2018-07-11T23:11:31.303Z,8.70
2018-07-11T23:13:59.146Z,7.50
2018-07-11T23:16:27.088Z,7.87
2018-07-11T23:18:54.650Z,7.70
2018-07-11T23:21:22.492Z,7.20
2018-07-11T23:23:50.328Z,7.50
2018-07-11T23:26:18.244Z,6.60
2018-07-11T23:28:46.073Z,6.70
2018-07-11T23:31:13.925Z,7.28
2018-07-11T23:33:41.888Z,6.70
2018-07-11T23:36:09.815Z,6.72
2018-07-11T23:38:37.811Z,7.45
2018-07-11T23:41:05.853Z,6.67
2018-07-11T23:43:35.639Z,7.05
2018-07-11T23:46:03.765Z,6.85
2018-07-11T23:48:31.713Z,7.12
2018-07-11T23:50:59.569Z,6.85
2018-07-11T23:53:27.405Z,6.70
2018-07-11T23:55:55.256Z,6.85
2018-07-11T23:58:23.207Z,7.45
